Reece, Kansas
Current Conditions -  °F | °C
As of 4:15 AM on Saturday 25 Oct 2014 (Local Time) from KEQA Reporting Station
Haze Haze  
Wind Chill: 61°   Ceiling: Unl
Heat Index: 61°   Visibility: 5mi
Dew Point: 59°   Wind: 3mph
Humidity: 94%   Direction: 190°S
Pressure: 30.03"   Gusts: NA
Location:  37.8908°N, 96.3726°W
Report Text: KEQA 250915Z AUTO 19003KT 5SM BR CLR 16/15 A3003 RMK AO2
Loading
Personal Weather Stations






























Interactive Weather Map
Tropical Storm Tracking
New forecast layout! Learn more

10-Day Weather Forecast

Advertisements
Track Severe Weather on mobile